Time;durP1;ratioP1;P1;durP2;ratioP2;P2;SDS_P1;SDS_P2;PMS_P1;PMS_P2;Temp;Humidity;BMP_temperature;BMP_pressure;BME280_temperature;BME280_humidity;BME280_pressure;Samples;Min_cycle;Max_cycle;Signal;HPM_P1;HPM_P2
2022/01/07 00:01:15;;;;;;;13.48;9.70;;;;;;;;;;5074201;28;20794;-69
2022/01/07 00:03:41;;;;;;;13.88;9.13;;;;;;;;;;5074092;28;20168;-72
2022/01/07 00:06:08;;;;;;;13.73;9.20;;;;;;;;;;5074222;28;20256;-69
2022/01/07 00:08:34;;;;;;;9.20;7.75;;;;;;;;;;5074205;28;20247;-72
2022/01/07 00:11:00;;;;;;;9.35;8.45;;;;;;;;;;5072857;28;20182;-69
2022/01/07 00:13:26;;;;;;;8.88;8.00;;;;;;;;;;5072736;28;20262;-70
2022/01/07 00:15:54;;;;;;;8.90;8.13;;;;;;;;;;5073740;28;20223;-71
2022/01/07 00:18:20;;;;;;;9.07;8.23;;;;;;;;;;5073954;28;20168;-67
2022/01/07 00:20:46;;;;;;;11.35;8.80;;;;;;;;;;5073933;28;20290;-69
2022/01/07 00:23:12;;;;;;;17.57;8.60;;;;;;;;;;5073899;28;20639;-68
2022/01/07 00:25:39;;;;;;;13.27;8.48;;;;;;;;;;5074085;28;20529;-71
2022/01/07 00:28:05;;;;;;;9.10;8.20;;;;;;;;;;5073786;28;20191;-71
2022/01/07 00:30:33;;;;;;;11.18;7.60;;;;;;;;;;5073714;28;20168;-74
2022/01/07 00:32:59;;;;;;;8.82;8.02;;;;;;;;;;5073751;28;20207;-71
2022/01/07 00:35:25;;;;;;;16.65;8.93;;;;;;;;;;5073506;28;20234;-72
2022/01/07 00:37:51;;;;;;;13.77;10.32;;;;;;;;;;5073661;28;20172;-69
2022/01/07 00:40:18;;;;;;;10.90;9.80;;;;;;;;;;5073537;28;20673;-70
2022/01/07 00:42:50;;;;;;;8.82;7.20;;;;;;;;;;5072222;28;20183;-71
2022/01/07 00:45:16;;;;;;;8.07;6.57;;;;;;;;;;5073431;28;20163;-72
2022/01/07 00:47:42;;;;;;;5.55;5.00;;;;;;;;;;5072272;28;20674;-71
2022/01/07 00:50:09;;;;;;;8.63;4.20;;;;;;;;;;5073501;28;20214;-69
2022/01/07 00:52:35;;;;;;;2.90;2.80;;;;;;;;;;5072211;28;20228;-70
2022/01/07 00:55:01;;;;;;;6.80;4.18;;;;;;;;;;5072164;28;20179;-68
2022/01/07 00:57:27;;;;;;;3.70;3.50;;;;;;;;;;5073442;28;20258;-69
2022/01/07 00:59:53;;;;;;;3.40;3.10;;;;;;;;;;5073331;28;20298;-69
2022/01/07 01:02:19;;;;;;;9.50;3.63;;;;;;;;;;5073399;28;20882;-67
2022/01/07 01:04:46;;;;;;;6.15;3.10;;;;;;;;;;5073255;28;20809;-67
2022/01/07 01:07:12;;;;;;;3.28;3.00;;;;;;;;;;5073358;28;20168;-67
2022/01/07 01:09:38;;;;;;;3.20;3.10;;;;;;;;;;5073304;28;20218;-72
2022/01/07 01:12:04;;;;;;;2.78;2.65;;;;;;;;;;5073301;28;20170;-69
2022/01/07 01:14:33;;;;;;;3.15;2.80;;;;;;;;;;5071873;28;20171;-71
2022/01/07 01:16:59;;;;;;;3.05;2.88;;;;;;;;;;5073088;28;20698;-69
2022/01/07 01:19:26;;;;;;;2.47;2.30;;;;;;;;;;5073161;28;20293;-67
2022/01/07 01:21:52;;;;;;;2.47;2.38;;;;;;;;;;5073123;28;20457;-70
2022/01/07 01:24:18;;;;;;;3.75;2.30;;;;;;;;;;5073125;28;20650;-70
2022/01/07 01:26:44;;;;;;;2.65;1.80;;;;;;;;;;5073163;28;20182;-67
2022/01/07 01:29:10;;;;;;;3.40;2.33;;;;;;;;;;5073165;28;20164;-72
2022/01/07 01:31:36;;;;;;;3.10;2.05;;;;;;;;;;5071828;28;20200;-69
2022/01/07 01:34:03;;;;;;;2.47;1.90;;;;;;;;;;5073051;28;20225;-67
2022/01/07 01:36:29;;;;;;;2.33;2.13;;;;;;;;;;5073071;28;20629;-69
2022/01/07 01:38:55;;;;;;;2.72;2.53;;;;;;;;;;5073029;28;20239;-71
2022/01/07 01:41:21;;;;;;;3.17;2.25;;;;;;;;;;5072851;28;20686;-69
2022/01/07 01:43:49;;;;;;;2.45;2.25;;;;;;;;;;5072931;28;20619;-66
2022/01/07 01:46:21;;;;;;;3.00;2.80;;;;;;;;;;5072977;28;20163;-67
2022/01/07 01:48:47;;;;;;;2.90;2.60;;;;;;;;;;5072944;28;20577;-69
2022/01/07 01:51:16;;;;;;;2.67;2.58;;;;;;;;;;5072898;28;20229;-70
2022/01/07 01:53:42;;;;;;;2.65;2.55;;;;;;;;;;5071668;28;20183;-67
2022/01/07 01:56:08;;;;;;;2.20;2.10;;;;;;;;;;5072874;28;20199;-67
2022/01/07 01:58:34;;;;;;;2.72;2.53;;;;;;;;;;5075603;28;20171;-67
2022/01/07 02:01:01;;;;;;;2.80;2.65;;;;;;;;;;5076534;28;20207;-70
2022/01/07 02:03:27;;;;;;;2.20;2.03;;;;;;;;;;5076589;28;20195;-68
2022/01/07 02:05:56;;;;;;;2.70;2.60;;;;;;;;;;5075255;28;20575;-69
2022/01/07 02:08:22;;;;;;;2.25;2.15;;;;;;;;;;5076552;28;20409;-70
2022/01/07 02:10:48;;;;;;;2.30;2.20;;;;;;;;;;5076368;28;20168;-71
2022/01/07 02:13:17;;;;;;;2.50;2.22;;;;;;;;;;5076307;28;20250;-69
2022/01/07 02:15:43;;;;;;;3.42;2.67;;;;;;;;;;5076206;28;20624;-72
2022/01/07 02:18:09;;;;;;;3.95;2.30;;;;;;;;;;5076301;28;20188;-67
2022/01/07 02:20:35;;;;;;;2.85;2.75;;;;;;;;;;5076132;28;20294;-67
2022/01/07 02:23:02;;;;;;;3.00;2.90;;;;;;;;;;5076297;28;20634;-67
2022/01/07 02:25:28;;;;;;;2.88;2.60;;;;;;;;;;5076129;28;20171;-68
2022/01/07 02:27:54;;;;;;;3.42;3.20;;;;;;;;;;5076188;28;20531;-67
2022/01/07 02:30:30;;;;;;;3.38;3.15;;;;;;;;;;5076068;28;20168;-67
2022/01/07 02:32:57;;;;;;;4.38;3.70;;;;;;;;;;5076022;28;20250;-67
2022/01/07 02:35:24;;;;;;;17.27;4.22;;;;;;;;;;5075970;28;20647;-67
2022/01/07 02:37:50;;;;;;;5.00;4.63;;;;;;;;;;5076010;28;20172;-68
2022/01/07 02:40:17;;;;;;;7.95;4.35;;;;;;;;;;5075873;28;20192;-67
2022/01/07 02:42:43;;;;;;;4.70;4.30;;;;;;;;;;5075809;28;20172;-69
2022/01/07 02:45:10;;;;;;;4.20;3.90;;;;;;;;;;5075833;28;20512;-67
2022/01/07 02:47:41;;;;;;;5.70;4.30;;;;;;;;;;5074450;28;20464;-66
2022/01/07 02:50:07;;;;;;;4.53;4.10;;;;;;;;;;5075626;28;20176;-67
2022/01/07 02:52:33;;;;;;;4.28;3.95;;;;;;;;;;5075716;28;20179;-67
2022/01/07 02:54:59;;;;;;;4.60;4.20;;;;;;;;;;5075648;28;20172;-67
2022/01/07 02:57:25;;;;;;;13.18;4.45;;;;;;;;;;5075527;28;20406;-66
2022/01/07 02:59:51;;;;;;;4.53;4.17;;;;;;;;;;5075421;28;20178;-68
2022/01/07 03:02:17;;;;;;;4.37;4.17;;;;;;;;;;5074207;28;20441;-68
2022/01/07 03:04:43;;;;;;;5.20;4.80;;;;;;;;;;5075387;28;20418;-67
2022/01/07 03:07:09;;;;;;;4.07;3.87;;;;;;;;;;5075373;28;20172;-67
2022/01/07 03:09:35;;;;;;;4.28;3.92;;;;;;;;;;5074006;28;20901;-66
2022/01/07 03:12:01;;;;;;;4.70;4.30;;;;;;;;;;5075304;28;20179;-68
2022/01/07 03:14:27;;;;;;;9.60;4.33;;;;;;;;;;5075289;28;20445;-68
2022/01/07 03:16:53;;;;;;;4.97;4.00;;;;;;;;;;5073702;28;20480;-69
2022/01/07 03:19:19;;;;;;;8.20;4.27;;;;;;;;;;5073990;28;20410;-69
2022/01/07 03:21:45;;;;;;;3.40;3.20;;;;;;;;;;5074949;28;20484;-69
2022/01/07 03:24:12;;;;;;;6.67;4.07;;;;;;;;;;5075080;28;20406;-69
2022/01/07 03:26:38;;;;;;;3.65;3.35;;;;;;;;;;5075031;28;20443;-68
2022/01/07 03:29:04;;;;;;;3.40;3.17;;;;;;;;;;5074979;28;20172;-68
2022/01/07 03:31:30;;;;;;;3.20;3.10;;;;;;;;;;5074848;28;20164;-68
2022/01/07 03:33:56;;;;;;;4.72;3.17;;;;;;;;;;5074794;28;20176;-70
2022/01/07 03:36:22;;;;;;;3.60;3.40;;;;;;;;;;5073545;28;20179;-67
2022/01/07 03:38:48;;;;;;;2.70;2.60;;;;;;;;;;5074897;28;20277;-73
2022/01/07 03:41:14;;;;;;;3.63;2.97;;;;;;;;;;5074790;28;20489;-70
2022/01/07 03:43:40;;;;;;;2.80;2.60;;;;;;;;;;5074606;28;20247;-71
2022/01/07 03:46:06;;;;;;;5.40;3.17;;;;;;;;;;5074608;28;20178;-68
2022/01/07 03:48:32;;;;;;;3.07;2.70;;;;;;;;;;5074613;28;20406;-67
2022/01/07 03:50:58;;;;;;;2.93;2.60;;;;;;;;;;5074463;28;20521;-69
2022/01/07 03:53:25;;;;;;;2.70;2.60;;;;;;;;;;5074440;28;20409;-67
2022/01/07 03:55:51;;;;;;;2.38;2.38;;;;;;;;;;5074679;28;20176;-71
2022/01/07 03:58:17;;;;;;;2.80;2.60;;;;;;;;;;5074314;28;20630;-70
2022/01/07 04:00:43;;;;;;;2.90;2.77;;;;;;;;;;5074306;28;20245;-68
2022/01/07 04:03:12;;;;;;;3.10;2.70;;;;;;;;;;5074263;28;20747;-73
2022/01/07 04:05:38;;;;;;;2.65;2.58;;;;;;;;;;5072937;28;20426;-67
2022/01/07 04:08:05;;;;;;;2.60;2.50;;;;;;;;;;5074211;28;20171;-70
2022/01/07 04:10:31;;;;;;;3.97;2.70;;;;;;;;;;5074155;28;20421;-68
2022/01/07 04:12:57;;;;;;;2.67;2.47;;;;;;;;;;5072824;28;20187;-69
2022/01/07 04:15:23;;;;;;;2.83;2.63;;;;;;;;;;5073926;28;20182;-69
2022/01/07 04:17:50;;;;;;;2.60;2.40;;;;;;;;;;5074062;28;20167;-71
2022/01/07 04:20:18;;;;;;;2.40;2.40;;;;;;;;;;5073531;28;20203;-71
2022/01/07 04:22:44;;;;;;;3.03;2.83;;;;;;;;;;5073964;28;20168;-66
2022/01/07 04:25:13;;;;;;;2.78;2.58;;;;;;;;;;5073992;28;20168;-67
2022/01/07 04:27:39;;;;;;;4.25;2.28;;;;;;;;;;5073944;28;20246;-69
2022/01/07 04:30:05;;;;;;;3.08;2.40;;;;;;;;;;5074357;28;20164;-66
2022/01/07 04:32:31;;;;;;;5.03;2.92;;;;;;;;;;5074169;28;20175;-67
2022/01/07 04:34:57;;;;;;;2.67;2.47;;;;;;;;;;5074003;28;20662;-66
2022/01/07 04:37:23;;;;;;;2.50;2.30;;;;;;;;;;5074036;28;20402;-67
2022/01/07 04:39:49;;;;;;;3.47;2.67;;;;;;;;;;5073968;28;20217;-67
2022/01/07 04:42:15;;;;;;;2.53;2.53;;;;;;;;;;5073682;28;20410;-66
2022/01/07 04:44:42;;;;;;;3.05;2.83;;;;;;;;;;5072384;28;20199;-67
2022/01/07 04:47:08;;;;;;;2.50;2.40;;;;;;;;;;5073884;28;20167;-67
2022/01/07 04:49:34;;;;;;;3.63;3.22;;;;;;;;;;5073491;28;20178;-67
2022/01/07 04:52:00;;;;;;;4.07;3.05;;;;;;;;;;5073608;28;20172;-66
2022/01/07 04:54:26;;;;;;;3.20;3.00;;;;;;;;;;5073532;28;20542;-66
2022/01/07 04:56:52;;;;;;;4.97;3.00;;;;;;;;;;5073416;28;20460;-66
2022/01/07 04:59:18;;;;;;;3.30;3.00;;;;;;;;;;5073486;28;20417;-66
2022/01/07 05:01:44;;;;;;;2.80;2.70;;;;;;;;;;5073362;28;20473;-66
2022/01/07 05:04:10;;;;;;;4.57;2.95;;;;;;;;;;5073301;28;20391;-68
2022/01/07 05:09:02;;;;;;;3.60;3.30;;;;;;;;;;5073635;28;20406;-66
2022/01/07 05:11:28;;;;;;;3.37;3.07;;;;;;;;;;5073279;28;20489;-69
2022/01/07 05:13:55;;;;;;;3.67;3.25;;;;;;;;;;5073190;28;20962;-66
2022/01/07 05:16:22;;;;;;;3.67;3.38;;;;;;;;;;5073100;28;20226;-67
2022/01/07 05:18:48;;;;;;;4.45;3.78;;;;;;;;;;5073295;28;20195;-66
2022/01/07 05:21:14;;;;;;;6.97;3.08;;;;;;;;;;5073073;28;20706;-67
2022/01/07 05:23:40;;;;;;;3.37;3.27;;;;;;;;;;5071893;28;20193;-74
2022/01/07 05:26:07;;;;;;;3.53;3.33;;;;;;;;;;5073133;28;20798;-66
2022/01/07 05:28:33;;;;;;;3.25;3.15;;;;;;;;;;5073121;28;20386;-66
2022/01/07 05:31:00;;;;;;;2.80;2.70;;;;;;;;;;5071837;28;20542;-67
2022/01/07 05:33:26;;;;;;;4.35;3.85;;;;;;;;;;5075695;28;20758;-66
2022/01/07 05:35:52;;;;;;;11.32;7.30;;;;;;;;;;5075815;28;20179;-66
2022/01/07 05:38:18;;;;;;;4.73;4.40;;;;;;;;;;5075800;28;20178;-67
2022/01/07 05:40:44;;;;;;;4.25;3.95;;;;;;;;;;5076889;28;20479;-66
2022/01/07 05:43:10;;;;;;;4.07;3.70;;;;;;;;;;5077120;28;20175;-68
2022/01/07 05:45:36;;;;;;;2.90;2.80;;;;;;;;;;5077002;28;20398;-67
2022/01/07 05:48:03;;;;;;;6.45;4.10;;;;;;;;;;5077086;28;20408;-66
2022/01/07 05:50:29;;;;;;;6.38;4.53;;;;;;;;;;5076942;28;20262;-66
2022/01/07 05:52:55;;;;;;;5.95;4.05;;;;;;;;;;5076851;28;20179;-67
2022/01/07 05:55:21;;;;;;;4.40;4.10;;;;;;;;;;5076787;28;20236;-68
2022/01/07 05:57:47;;;;;;;4.28;3.90;;;;;;;;;;5075330;28;20474;-67
2022/01/07 06:00:13;;;;;;;4.17;3.87;;;;;;;;;;5076647;28;20286;-66
2022/01/07 06:02:39;;;;;;;4.95;4.57;;;;;;;;;;5076596;28;20410;-69
2022/01/07 06:05:06;;;;;;;5.37;4.97;;;;;;;;;;5076561;28;20611;-67
2022/01/07 06:07:32;;;;;;;6.55;4.40;;;;;;;;;;5076455;28;20934;-66
2022/01/07 06:09:58;;;;;;;6.33;5.03;;;;;;;;;;5076470;28;20160;-66
2022/01/07 06:12:24;;;;;;;6.05;5.50;;;;;;;;;;5076406;28;20430;-66
2022/01/07 06:14:50;;;;;;;7.07;6.53;;;;;;;;;;5076378;28;20167;-67
2022/01/07 06:17:16;;;;;;;9.13;6.40;;;;;;;;;;5076085;28;20469;-66
2022/01/07 06:19:42;;;;;;;5.95;5.55;;;;;;;;;;5076273;28;20410;-66
2022/01/07 06:22:08;;;;;;;5.78;5.20;;;;;;;;;;5076171;28;20208;-68
2022/01/07 06:24:34;;;;;;;23.20;13.83;;;;;;;;;;5076227;28;20641;-66
2022/01/07 06:27:00;;;;;;;25.70;18.85;;;;;;;;;;5076158;28;20493;-69
2022/01/07 06:29:26;;;;;;;17.77;13.93;;;;;;;;;;5076123;28;20626;-67
2022/01/07 06:31:52;;;;;;;13.73;10.50;;;;;;;;;;5074797;28;20425;-68
2022/01/07 06:34:20;;;;;;;8.02;7.32;;;;;;;;;;5076006;28;20190;-69
2022/01/07 06:36:46;;;;;;;8.15;7.45;;;;;;;;;;5075940;28;20294;-68
2022/01/07 06:39:13;;;;;;;7.45;6.78;;;;;;;;;;5074694;28;20175;-66
2022/01/07 06:41:38;;;;;;;8.23;7.43;;;;;;;;;;5075781;28;20199;-67
2022/01/07 06:44:05;;;;;;;7.97;7.27;;;;;;;;;;5075538;28;20170;-67
2022/01/07 06:46:31;;;;;;;7.03;6.45;;;;;;;;;;5075795;28;20402;-68
2022/01/07 06:48:59;;;;;;;9.70;6.83;;;;;;;;;;5075807;28;20171;-67
2022/01/07 06:51:28;;;;;;;6.88;6.28;;;;;;;;;;5075725;28;20406;-67
2022/01/07 06:53:54;;;;;;;7.80;6.78;;;;;;;;;;5076008;28;20168;-72
2022/01/07 06:56:20;;;;;;;10.80;7.03;;;;;;;;;;5075684;28;20178;-72
2022/01/07 06:58:46;;;;;;;7.47;6.90;;;;;;;;;;5075499;28;20398;-74
2022/01/07 07:01:12;;;;;;;8.20;7.30;;;;;;;;;;5075530;28;20508;-73
2022/01/07 07:03:40;;;;;;;13.90;7.73;;;;;;;;;;5075500;28;20409;-75
2022/01/07 07:06:06;;;;;;;8.80;7.60;;;;;;;;;;5075365;28;20450;-69
2022/01/07 07:08:32;;;;;;;8.43;7.13;;;;;;;;;;5075560;28;20168;-67
2022/01/07 07:10:58;;;;;;;7.73;7.03;;;;;;;;;;5075518;28;20168;-68
2022/01/07 07:13:24;;;;;;;8.15;6.60;;;;;;;;;;5075296;28;20405;-66
2022/01/07 07:15:50;;;;;;;7.73;7.13;;;;;;;;;;5075105;28;20581;-67
2022/01/07 07:18:17;;;;;;;6.70;6.10;;;;;;;;;;5075142;28;20449;-67
2022/01/07 07:20:43;;;;;;;6.78;6.18;;;;;;;;;;5075341;28;20477;-67
2022/01/07 07:23:09;;;;;;;5.57;5.07;;;;;;;;;;5075111;28;20164;-67
2022/01/07 07:25:35;;;;;;;6.50;6.00;;;;;;;;;;5073801;28;20252;-67
2022/01/07 07:28:01;;;;;;;4.50;4.27;;;;;;;;;;5075060;28;20627;-70
2022/01/07 07:30:34;;;;;;;4.77;4.50;;;;;;;;;;5074368;28;20479;-68
2022/01/07 07:33:27;;;;;;;5.65;5.10;;;;;;;;;;5072302;28;20789;-68
2022/01/07 07:38:12;;;;;;;5.10;4.70;;;;;;;;;;5075053;28;20193;-68
2022/01/07 07:40:38;;;;;;;5.67;5.23;;;;;;;;;;5074054;28;20457;-70
2022/01/07 07:43:04;;;;;;;5.55;5.25;;;;;;;;;;5072131;28;20429;-72
2022/01/07 07:45:30;;;;;;;5.63;4.55;;;;;;;;;;5073316;28;20767;-72
2022/01/07 07:47:56;;;;;;;5.53;5.07;;;;;;;;;;5073405;28;20273;-69
2022/01/07 07:50:22;;;;;;;5.25;4.80;;;;;;;;;;5071744;28;20528;-75
2022/01/07 07:52:48;;;;;;;5.37;4.97;;;;;;;;;;5070565;28;20269;-76
2022/01/07 07:55:14;;;;;;;4.07;3.77;;;;;;;;;;5072534;28;20406;-75
2022/01/07 07:57:40;;;;;;;4.07;3.90;;;;;;;;;;5073108;28;20754;-68
2022/01/07 08:00:07;;;;;;;4.40;4.10;;;;;;;;;;5073627;28;20466;-70
2022/01/07 08:02:34;;;;;;;6.70;5.03;;;;;;;;;;5073632;28;20610;-68
2022/01/07 08:05:00;;;;;;;4.35;4.15;;;;;;;;;;5074331;28;20665;-70
2022/01/07 08:07:26;;;;;;;3.83;3.50;;;;;;;;;;5074301;28;20171;-74
2022/01/07 08:09:53;;;;;;;4.40;4.10;;;;;;;;;;5074243;28;20417;-70
2022/01/07 08:12:25;;;;;;;4.60;4.40;;;;;;;;;;5074124;28;20444;-70
2022/01/07 08:17:36;;;;;;;5.53;5.13;;;;;;;;;;5074105;28;20195;-69
2022/01/07 08:20:03;;;;;;;4.93;4.53;;;;;;;;;;5072600;28;20179;-69
2022/01/07 08:22:29;;;;;;;9.65;5.90;;;;;;;;;;5074037;28;20225;-68
2022/01/07 08:24:55;;;;;;;5.77;5.00;;;;;;;;;;5073878;28;20168;-70
2022/01/07 08:27:21;;;;;;;3.87;3.37;;;;;;;;;;5073876;28;20412;-71
2022/01/07 08:29:47;;;;;;;3.80;3.70;;;;;;;;;;5073806;28;20407;-70
2022/01/07 08:34:58;;;;;;;4.70;3.92;;;;;;;;;;5073945;28;20241;-68
2022/01/07 08:37:25;;;;;;;4.67;4.27;;;;;;;;;;5073728;28;20578;-69
2022/01/07 08:39:53;;;;;;;4.10;3.90;;;;;;;;;;5073674;28;20425;-68
2022/01/07 08:42:19;;;;;;;3.13;3.13;;;;;;;;;;5073639;28;20544;-68
2022/01/07 08:44:45;;;;;;;4.28;3.80;;;;;;;;;;5073609;28;20171;-68
2022/01/07 08:47:11;;;;;;;4.10;3.80;;;;;;;;;;5073820;28;20172;-72
2022/01/07 08:49:37;;;;;;;5.00;4.45;;;;;;;;;;5073478;28;20207;-70
2022/01/07 08:52:03;;;;;;;5.28;3.20;;;;;;;;;;5073599;28;20171;-70
2022/01/07 08:54:29;;;;;;;7.22;3.85;;;;;;;;;;5072167;28;20171;-77
2022/01/07 08:56:56;;;;;;;4.77;4.13;;;;;;;;;;5073425;28;20535;-70
2022/01/07 08:59:22;;;;;;;3.33;3.13;;;;;;;;;;5073436;28;20536;-71
2022/01/07 09:01:48;;;;;;;3.40;3.20;;;;;;;;;;5073533;28;20214;-72
2022/01/07 09:04:14;;;;;;;3.03;2.92;;;;;;;;;;5073408;28;20168;-73
2022/01/07 09:06:40;;;;;;;5.70;3.80;;;;;;;;;;5073259;28;20172;-73
2022/01/07 09:09:06;;;;;;;5.50;3.80;;;;;;;;;;5073299;28;20233;-69
2022/01/07 09:11:32;;;;;;;3.20;3.10;;;;;;;;;;5073552;28;20406;-71
2022/01/07 09:13:58;;;;;;;2.83;2.63;;;;;;;;;;5072009;28;20183;-66
2022/01/07 09:16:25;;;;;;;7.28;2.90;;;;;;;;;;5073027;28;20477;-66
2022/01/07 09:18:51;;;;;;;2.80;2.60;;;;;;;;;;5073255;28;20159;-68
2022/01/07 09:21:18;;;;;;;2.92;2.67;;;;;;;;;;5073281;28;20211;-66
2022/01/07 09:23:44;;;;;;;2.30;2.28;;;;;;;;;;5071857;28;20630;-66
2022/01/07 09:26:11;;;;;;;2.50;2.30;;;;;;;;;;5073185;28;20176;-67
2022/01/07 09:28:38;;;;;;;2.80;2.53;;;;;;;;;;5073110;28;20168;-68
2022/01/07 09:31:04;;;;;;;2.63;2.53;;;;;;;;;;5073375;28;20171;-71
2022/01/07 09:33:30;;;;;;;3.10;2.90;;;;;;;;;;5073142;28;20178;-71
2022/01/07 09:35:56;;;;;;;2.67;2.58;;;;;;;;;;5073033;28;20437;-68
2022/01/07 09:38:22;;;;;;;5.50;2.70;;;;;;;;;;5073054;28;20172;-73
2022/01/07 09:40:51;;;;;;;2.50;2.30;;;;;;;;;;5072471;28;20560;-75
2022/01/07 09:43:18;;;;;;;2.60;2.40;;;;;;;;;;5072493;28;20536;-68
2022/01/07 09:45:44;;;;;;;2.90;2.65;;;;;;;;;;5071092;28;20667;-75
2022/01/07 09:48:10;;;;;;;4.27;2.80;;;;;;;;;;5072691;28;20172;-77
2022/01/07 09:50:39;;;;;;;5.40;2.87;;;;;;;;;;5072808;28;20414;-80
2022/01/07 09:53:11;;;;;;;3.83;2.50;;;;;;;;;;5072934;28;20369;-74
2022/01/07 09:55:37;;;;;;;2.20;2.03;;;;;;;;;;5072837;28;20490;-73
2022/01/07 09:58:04;;;;;;;2.30;2.20;;;;;;;;;;5072969;28;20216;-72
2022/01/07 10:00:52;;;;;;;4.63;2.60;;;;;;;;;;5072856;28;20967;-66
2022/01/07 10:03:18;;;;;;;2.60;2.40;;;;;;;;;;5064098;28;20533;-72
2022/01/07 10:05:52;;;;;;;5.53;2.50;;;;;;;;;;5072734;28;20642;-74
2022/01/07 10:08:21;;;;;;;4.63;3.00;;;;;;;;;;5072720;28;20529;-71
2022/01/07 10:10:48;;;;;;;2.75;2.65;;;;;;;;;;5072709;28;20192;-69
2022/01/07 10:13:19;;;;;;;4.43;4.00;;;;;;;;;;5072651;28;20297;-67
2022/01/07 10:15:45;;;;;;;6.03;3.80;;;;;;;;;;5072458;28;20223;-67
2022/01/07 10:18:12;;;;;;;3.83;3.53;;;;;;;;;;5073119;28;20251;-68
2022/01/07 10:20:40;;;;;;;4.65;2.35;;;;;;;;;;5076110;28;20325;-70
2022/01/07 10:23:14;;;;;;;10.77;3.75;;;;;;;;;;5076171;28;20163;-68
2022/01/07 10:25:42;;;;;;;6.22;4.93;;;;;;;;;;5076126;28;20167;-73
2022/01/07 10:28:09;;;;;;;4.45;2.55;;;;;;;;;;5076158;28;20214;-70
2022/01/07 10:30:38;;;;;;;4.18;3.10;;;;;;;;;;5076062;28;20627;-72
2022/01/07 10:33:24;;;;;;;4.30;2.83;;;;;;;;;;5075984;28;20176;-68
2022/01/07 10:35:52;;;;;;;3.25;2.92;;;;;;;;;;5075776;28;20179;-69
2022/01/07 10:38:22;;;;;;;7.30;3.55;;;;;;;;;;5076015;28;20175;-68
2022/01/07 10:40:49;;;;;;;2.72;2.53;;;;;;;;;;5075834;28;20207;-68
2022/01/07 10:43:16;;;;;;;5.30;2.72;;;;;;;;;;5075889;28;20217;-69
2022/01/07 10:45:47;;;;;;;3.28;3.05;;;;;;;;;;5075834;28;20661;-71
2022/01/07 10:48:13;;;;;;;3.13;2.88;;;;;;;;;;5075768;28;20187;-68
2022/01/07 10:50:41;;;;;;;3.40;3.08;;;;;;;;;;5075709;28;20179;-71
2022/01/07 10:53:15;;;;;;;3.10;2.70;;;;;;;;;;5075662;28;20172;-71
2022/01/07 10:55:41;;;;;;;4.30;3.30;;;;;;;;;;5074456;28;20275;-71
2022/01/07 10:58:07;;;;;;;2.70;2.50;;;;;;;;;;5075598;28;20172;-70
2022/01/07 11:00:36;;;;;;;5.00;3.33;;;;;;;;;;5075496;28;20203;-69
2022/01/07 11:03:07;;;;;;;5.55;3.00;;;;;;;;;;5075530;28;20916;-69
2022/01/07 11:05:33;;;;;;;5.38;2.78;;;;;;;;;;5075357;28;20665;-68
2022/01/07 11:08:01;;;;;;;2.85;2.65;;;;;;;;;;5075464;28;20393;-69
2022/01/07 11:10:29;;;;;;;3.10;2.75;;;;;;;;;;5075455;28;20175;-68
2022/01/07 11:12:57;;;;;;;4.07;2.70;;;;;;;;;;5073981;28;20590;-68
2022/01/07 11:15:23;;;;;;;2.78;2.60;;;;;;;;;;5075015;28;20255;-69
2022/01/07 11:17:49;;;;;;;3.97;3.45;;;;;;;;;;5075496;28;20225;-67
2022/01/07 11:20:20;;;;;;;3.00;2.80;;;;;;;;;;5074988;28;20259;-77
2022/01/07 11:22:48;;;;;;;3.60;2.90;;;;;;;;;;5075094;28;20540;-67
2022/01/07 11:25:15;;;;;;;4.22;2.65;;;;;;;;;;5075394;28;20554;-67
2022/01/07 11:27:52;;;;;;;3.13;2.83;;;;;;;;;;5075201;28;20162;-67
2022/01/07 11:30:28;;;;;;;4.72;3.00;;;;;;;;;;5073894;28;20221;-67
2022/01/07 11:32:54;;;;;;;2.72;2.53;;;;;;;;;;5075277;28;20203;-67
2022/01/07 11:35:20;;;;;;;2.92;2.50;;;;;;;;;;5074754;28;20705;-68
2022/01/07 11:37:47;;;;;;;2.83;2.60;;;;;;;;;;5074913;28;20199;-67
2022/01/07 11:40:31;;;;;;;3.53;3.30;;;;;;;;;;5074572;28;20414;-67
2022/01/07 11:43:04;;;;;;;2.95;2.75;;;;;;;;;;5074768;28;20167;-69
2022/01/07 11:45:40;;;;;;;3.38;3.13;;;;;;;;;;5074973;28;20175;-69
2022/01/07 11:48:12;;;;;;;3.30;3.00;;;;;;;;;;5075410;28;20171;-66
2022/01/07 11:50:56;;;;;;;11.05;3.33;;;;;;;;;;5074665;28;20180;-66
2022/01/07 11:53:25;;;;;;;10.38;3.58;;;;;;;;;;5074596;28;20513;-66
2022/01/07 11:55:52;;;;;;;3.67;3.45;;;;;;;;;;5074551;28;20183;-66
2022/01/07 11:58:18;;;;;;;4.18;3.33;;;;;;;;;;5074447;28;20176;-66
2022/01/07 12:00:59;;;;;;;4.10;3.60;;;;;;;;;;5074318;28;20199;-66
2022/01/07 12:03:39;;;;;;;4.78;3.42;;;;;;;;;;5074595;28;20175;-66
2022/01/07 12:06:26;;;;;;;6.47;4.10;;;;;;;;;;5074183;28;20674;-65
2022/01/07 12:09:05;;;;;;;4.78;4.32;;;;;;;;;;5072882;28;20593;-66
2022/01/07 12:11:31;;;;;;;7.85;4.05;;;;;;;;;;5074263;28;20168;-67
2022/01/07 12:13:58;;;;;;;10.33;3.80;;;;;;;;;;5074191;28;20176;-66
2022/01/07 12:16:25;;;;;;;6.28;4.28;;;;;;;;;;5073877;28;20461;-66
2022/01/07 12:18:51;;;;;;;3.72;3.53;;;;;;;;;;5074061;28;20175;-68
2022/01/07 12:21:17;;;;;;;4.72;4.22;;;;;;;;;;5073773;28;20207;-65
2022/01/07 12:23:43;;;;;;;6.03;4.22;;;;;;;;;;5073857;28;20156;-68
2022/01/07 12:26:09;;;;;;;9.27;5.97;;;;;;;;;;5073831;28;20191;-68
2022/01/07 12:28:42;;;;;;;4.35;4.05;;;;;;;;;;5073741;28;20174;-66
2022/01/07 12:31:09;;;;;;;4.75;4.00;;;;;;;;;;5073847;28;20583;-70
2022/01/07 12:33:35;;;;;;;3.83;3.63;;;;;;;;;;5073776;28;20167;-69
2022/01/07 12:36:01;;;;;;;4.13;3.92;;;;;;;;;;5073586;28;20259;-71
2022/01/07 12:38:27;;;;;;;4.68;4.13;;;;;;;;;;5073679;28;20179;-71
2022/01/07 12:40:54;;;;;;;4.60;4.30;;;;;;;;;;5073268;28;20207;-68
2022/01/07 12:43:21;;;;;;;8.73;4.55;;;;;;;;;;5073619;28;20402;-70
2022/01/07 12:46:01;;;;;;;4.65;4.35;;;;;;;;;;5073657;28;20166;-73
2022/01/07 12:48:38;;;;;;;4.15;3.95;;;;;;;;;;5073623;28;20168;-69
2022/01/07 12:51:05;;;;;;;6.07;4.18;;;;;;;;;;5073541;28;20540;-68
2022/01/07 12:53:31;;;;;;;5.80;4.43;;;;;;;;;;5073473;28;20173;-68
2022/01/07 12:56:17;;;;;;;6.10;4.78;;;;;;;;;;5073530;28;20298;-70
2022/01/07 12:58:43;;;;;;;7.75;5.05;;;;;;;;;;5073379;28;20211;-70
2022/01/07 13:01:21;;;;;;;4.90;4.50;;;;;;;;;;5073443;28;20245;-71
2022/01/07 13:03:47;;;;;;;4.80;4.32;;;;;;;;;;5073340;28;20167;-68
2022/01/07 13:06:13;;;;;;;7.37;5.10;;;;;;;;;;5072121;28;20225;-69
2022/01/07 13:08:39;;;;;;;5.30;4.43;;;;;;;;;;5073463;28;20445;-69
2022/01/07 13:11:05;;;;;;;4.53;4.13;;;;;;;;;;5073386;28;20416;-68
2022/01/07 13:13:31;;;;;;;9.87;5.00;;;;;;;;;;5073430;28;20385;-69
2022/01/07 13:16:02;;;;;;;8.20;6.33;;;;;;;;;;5073188;28;20851;-69
2022/01/07 13:18:28;;;;;;;5.20;4.88;;;;;;;;;;5073394;28;20402;-70
2022/01/07 13:20:57;;;;;;;14.20;5.27;;;;;;;;;;5073191;28;20278;-68
2022/01/07 13:23:24;;;;;;;5.55;4.85;;;;;;;;;;5073244;28;20397;-69
2022/01/07 13:25:51;;;;;;;5.30;4.70;;;;;;;;;;5073242;28;20214;-66
2022/01/07 13:28:28;;;;;;;6.82;4.20;;;;;;;;;;5073236;28;20176;-68
2022/01/07 13:30:55;;;;;;;5.95;5.43;;;;;;;;;;5073196;28;20221;-68
2022/01/07 13:33:25;;;;;;;7.55;6.00;;;;;;;;;;5073178;28;20156;-68
2022/01/07 13:35:55;;;;;;;8.60;5.22;;;;;;;;;;5073038;28;20172;-69
2022/01/07 13:38:21;;;;;;;5.80;5.05;;;;;;;;;;5073161;28;20255;-68
2022/01/07 13:40:47;;;;;;;5.47;4.50;;;;;;;;;;5072951;28;20210;-68
2022/01/07 13:43:15;;;;;;;4.60;4.30;;;;;;;;;;5073189;28;20198;-70
2022/01/07 13:45:41;;;;;;;8.98;5.70;;;;;;;;;;5072930;28;20426;-69
2022/01/07 13:48:12;;;;;;;5.70;4.50;;;;;;;;;;5073250;28;20168;-69
2022/01/07 13:50:40;;;;;;;4.93;4.53;;;;;;;;;;5073118;28;20211;-70
2022/01/07 13:53:12;;;;;;;5.57;5.05;;;;;;;;;;5073339;28;20179;-69
2022/01/07 13:55:39;;;;;;;5.05;4.75;;;;;;;;;;5076742;28;20199;-70
2022/01/07 13:58:09;;;;;;;6.15;5.00;;;;;;;;;;5076785;28;20168;-70
2022/01/07 14:00:38;;;;;;;5.50;4.60;;;;;;;;;;5076560;28;20240;-70
2022/01/07 14:03:05;;;;;;;5.35;3.78;;;;;;;;;;5075352;28;20211;-69
2022/01/07 14:05:31;;;;;;;5.45;4.95;;;;;;;;;;5076556;28;20178;-70
2022/01/07 14:07:58;;;;;;;4.50;4.18;;;;;;;;;;5076473;28;20160;-69
2022/01/07 14:10:35;;;;;;;5.90;5.40;;;;;;;;;;5076433;28;20175;-68
2022/01/07 14:13:04;;;;;;;4.68;4.47;;;;;;;;;;5076443;28;20160;-69
2022/01/07 14:15:31;;;;;;;4.60;4.40;;;;;;;;;;5076277;28;20220;-70
2022/01/07 14:18:23;;;;;;;5.22;4.00;;;;;;;;;;5076278;28;20221;-69
2022/01/07 14:20:54;;;;;;;5.82;4.35;;;;;;;;;;5074178;28;20221;-68
2022/01/07 14:23:24;;;;;;;4.70;4.30;;;;;;;;;;5076247;28;20624;-69
2022/01/07 14:25:51;;;;;;;4.75;4.55;;;;;;;;;;5076459;28;20533;-69
2022/01/07 14:28:21;;;;;;;4.65;4.45;;;;;;;;;;5076030;28;20597;-69
2022/01/07 14:30:47;;;;;;;4.80;4.60;;;;;;;;;;5076023;28;20623;-69
2022/01/07 14:33:13;;;;;;;4.50;4.20;;;;;;;;;;5076130;28;20305;-73
2022/01/07 14:35:39;;;;;;;4.70;4.60;;;;;;;;;;5074698;28;20275;-69
2022/01/07 14:38:06;;;;;;;4.30;4.00;;;;;;;;;;5075944;28;20458;-69
2022/01/07 14:40:32;;;;;;;9.60;3.95;;;;;;;;;;5075811;28;20679;-70
2022/01/07 14:42:58;;;;;;;3.90;3.60;;;;;;;;;;5075741;28;20635;-69
2022/01/07 14:45:24;;;;;;;4.30;3.97;;;;;;;;;;5074534;28;20179;-70
2022/01/07 14:47:51;;;;;;;4.30;4.10;;;;;;;;;;5075907;28;20168;-69
2022/01/07 14:50:18;;;;;;;3.55;3.45;;;;;;;;;;5075734;28;20459;-70
2022/01/07 14:52:44;;;;;;;3.88;3.70;;;;;;;;;;5074681;28;20182;-70
2022/01/07 14:55:10;;;;;;;3.67;3.47;;;;;;;;;;5075712;28;20172;-67